sensor_id;sensor_type;location;lat;lon;timestamp;P1;durP1;ratioP1;P2;durP2;ratioP2
37931;SDS011;23758;42.640;23.302;2023-05-02T00:02:12;2.83;;;2.63;;
37931;SDS011;23758;42.640;23.302;2023-05-02T00:04:38;2.90;;;2.70;;
37931;SDS011;23758;42.640;23.302;2023-05-02T00:07:03;2.70;;;2.50;;
37931;SDS011;23758;42.640;23.302;2023-05-02T00:09:29;2.55;;;2.42;;
37931;SDS011;23758;42.640;23.302;2023-05-02T00:11:55;2.47;;;2.38;;
37931;SDS011;23758;42.640;23.302;2023-05-02T00:14:20;2.90;;;2.70;;
37931;SDS011;23758;42.640;23.302;2023-05-02T00:16:46;2.85;;;2.65;;
37931;SDS011;23758;42.640;23.302;2023-05-02T00:19:11;2.60;;;2.40;;
37931;SDS011;23758;42.640;23.302;2023-05-02T00:21:37;2.65;;;2.45;;
37931;SDS011;23758;42.640;23.302;2023-05-02T00:24:03;2.80;;;2.60;;
37931;SDS011;23758;42.640;23.302;2023-05-02T00:26:28;2.80;;;2.60;;
37931;SDS011;23758;42.640;23.302;2023-05-02T00:28:55;2.70;;;2.50;;
37931;SDS011;23758;42.640;23.302;2023-05-02T00:31:20;2.70;;;2.50;;
37931;SDS011;23758;42.640;23.302;2023-05-02T00:33:45;2.58;;;2.40;;
37931;SDS011;23758;42.640;23.302;2023-05-02T00:38:40;2.97;;;2.78;;
37931;SDS011;23758;42.640;23.302;2023-05-02T00:41:05;2.90;;;2.70;;
37931;SDS011;23758;42.640;23.302;2023-05-02T00:43:31;2.70;;;2.50;;
37931;SDS011;23758;42.640;23.302;2023-05-02T00:45:56;2.55;;;2.40;;
37931;SDS011;23758;42.640;23.302;2023-05-02T00:48:22;2.67;;;2.47;;
37931;SDS011;23758;42.640;23.302;2023-05-02T00:50:49;2.70;;;2.50;;
37931;SDS011;23758;42.640;23.302;2023-05-02T00:53:14;2.60;;;2.40;;
37931;SDS011;23758;42.640;23.302;2023-05-02T00:55:40;2.83;;;2.63;;
37931;SDS011;23758;42.640;23.302;2023-05-02T00:58:07;2.72;;;2.53;;
37931;SDS011;23758;42.640;23.302;2023-05-02T01:00:45;2.70;;;2.50;;
37931;SDS011;23758;42.640;23.302;2023-05-02T01:09:09;2.80;;;2.60;;
37931;SDS011;23758;42.640;23.302;2023-05-02T01:14:10;2.80;;;2.60;;
37931;SDS011;23758;42.640;23.302;2023-05-02T01:16:39;2.80;;;2.60;;
37931;SDS011;23758;42.640;23.302;2023-05-02T01:19:08;3.08;;;2.88;;
37931;SDS011;23758;42.640;23.302;2023-05-02T01:21:40;2.92;;;2.72;;
37931;SDS011;23758;42.640;23.302;2023-05-02T01:24:11;2.70;;;2.50;;
37931;SDS011;23758;42.640;23.302;2023-05-02T01:29:17;2.88;;;2.67;;
37931;SDS011;23758;42.640;23.302;2023-05-02T01:31:45;2.78;;;2.58;;
37931;SDS011;23758;42.640;23.302;2023-05-02T01:34:12;2.90;;;2.70;;
37931;SDS011;23758;42.640;23.302;2023-05-02T01:36:41;2.70;;;2.50;;
37931;SDS011;23758;42.640;23.302;2023-05-02T01:39:18;2.70;;;2.50;;
37931;SDS011;23758;42.640;23.302;2023-05-02T01:41:45;2.90;;;2.70;;
37931;SDS011;23758;42.640;23.302;2023-05-02T01:44:14;3.05;;;2.85;;
37931;SDS011;23758;42.640;23.302;2023-05-02T01:46:41;2.80;;;2.60;;
37931;SDS011;23758;42.640;23.302;2023-05-02T01:49:07;2.80;;;2.60;;
37931;SDS011;23758;42.640;23.302;2023-05-02T01:51:34;2.90;;;2.70;;
37931;SDS011;23758;42.640;23.302;2023-05-02T01:54:01;2.90;;;2.70;;
37931;SDS011;23758;42.640;23.302;2023-05-02T01:56:30;2.90;;;2.70;;
37931;SDS011;23758;42.640;23.302;2023-05-02T01:58:58;2.85;;;2.65;;
37931;SDS011;23758;42.640;23.302;2023-05-02T02:01:24;2.80;;;2.60;;
37931;SDS011;23758;42.640;23.302;2023-05-02T02:03:53;2.83;;;2.63;;
37931;SDS011;23758;42.640;23.302;2023-05-02T02:06:19;2.85;;;2.65;;
37931;SDS011;23758;42.640;23.302;2023-05-02T02:08:45;2.95;;;2.75;;
37931;SDS011;23758;42.640;23.302;2023-05-02T02:11:11;2.88;;;2.67;;
37931;SDS011;23758;42.640;23.302;2023-05-02T02:13:38;3.63;;;3.42;;
37931;SDS011;23758;42.640;23.302;2023-05-02T02:16:09;2.90;;;2.70;;
37931;SDS011;23758;42.640;23.302;2023-05-02T02:18:36;3.20;;;3.00;;
37931;SDS011;23758;42.640;23.302;2023-05-02T02:21:06;3.00;;;2.80;;
37931;SDS011;23758;42.640;23.302;2023-05-02T02:23:33;3.10;;;2.90;;
37931;SDS011;23758;42.640;23.302;2023-05-02T02:26:01;3.53;;;3.33;;
37931;SDS011;23758;42.640;23.302;2023-05-02T02:28:27;3.10;;;2.90;;
37931;SDS011;23758;42.640;23.302;2023-05-02T02:30:52;3.00;;;2.80;;
37931;SDS011;23758;42.640;23.302;2023-05-02T02:33:17;3.00;;;2.80;;
37931;SDS011;23758;42.640;23.302;2023-05-02T02:35:47;3.25;;;3.05;;
37931;SDS011;23758;42.640;23.302;2023-05-02T02:38:23;2.90;;;2.70;;
37931;SDS011;23758;42.640;23.302;2023-05-02T02:41:00;2.80;;;2.60;;
37931;SDS011;23758;42.640;23.302;2023-05-02T02:51:55;2.80;;;2.60;;
37931;SDS011;23758;42.640;23.302;2023-05-02T02:57:14;2.80;;;2.60;;
37931;SDS011;23758;42.640;23.302;2023-05-02T02:59:43;2.88;;;2.67;;
37931;SDS011;23758;42.640;23.302;2023-05-02T03:02:14;3.03;;;2.83;;
37931;SDS011;23758;42.640;23.302;2023-05-02T03:04:46;3.70;;;3.40;;
37931;SDS011;23758;42.640;23.302;2023-05-02T03:07:15;2.78;;;2.58;;
37931;SDS011;23758;42.640;23.302;2023-05-02T03:09:44;3.33;;;3.13;;
37931;SDS011;23758;42.640;23.302;2023-05-02T03:12:11;3.00;;;2.80;;
37931;SDS011;23758;42.640;23.302;2023-05-02T03:14:36;2.90;;;2.70;;
37931;SDS011;23758;42.640;23.302;2023-05-02T03:17:02;2.78;;;2.58;;
37931;SDS011;23758;42.640;23.302;2023-05-02T03:19:28;3.03;;;2.83;;
37931;SDS011;23758;42.640;23.302;2023-05-02T03:21:54;2.70;;;2.50;;
37931;SDS011;23758;42.640;23.302;2023-05-02T03:24:20;2.90;;;2.70;;
37931;SDS011;23758;42.640;23.302;2023-05-02T03:26:46;3.00;;;2.80;;
37931;SDS011;23758;42.640;23.302;2023-05-02T03:29:14;2.80;;;2.60;;
37931;SDS011;23758;42.640;23.302;2023-05-02T03:31:40;2.80;;;2.60;;
37931;SDS011;23758;42.640;23.302;2023-05-02T03:34:06;2.95;;;2.75;;
37931;SDS011;23758;42.640;23.302;2023-05-02T03:36:31;3.10;;;2.90;;
37931;SDS011;23758;42.640;23.302;2023-05-02T03:38:57;2.75;;;2.55;;
37931;SDS011;23758;42.640;23.302;2023-05-02T03:41:22;2.75;;;2.55;;
37931;SDS011;23758;42.640;23.302;2023-05-02T03:43:49;2.80;;;2.60;;
37931;SDS011;23758;42.640;23.302;2023-05-02T03:46:15;2.70;;;2.50;;
37931;SDS011;23758;42.640;23.302;2023-05-02T03:48:40;2.72;;;2.53;;
37931;SDS011;23758;42.640;23.302;2023-05-02T03:51:06;2.60;;;2.40;;
37931;SDS011;23758;42.640;23.302;2023-05-02T03:53:34;2.70;;;2.50;;
37931;SDS011;23758;42.640;23.302;2023-05-02T03:56:00;2.70;;;2.50;;
37931;SDS011;23758;42.640;23.302;2023-05-02T03:58:26;2.70;;;2.50;;
37931;SDS011;23758;42.640;23.302;2023-05-02T04:00:51;2.50;;;2.40;;
37931;SDS011;23758;42.640;23.302;2023-05-02T04:03:17;2.72;;;2.53;;
37931;SDS011;23758;42.640;23.302;2023-05-02T04:05:43;2.55;;;2.40;;
37931;SDS011;23758;42.640;23.302;2023-05-02T04:08:09;2.80;;;2.60;;
37931;SDS011;23758;42.640;23.302;2023-05-02T04:10:35;2.60;;;2.40;;
37931;SDS011;23758;42.640;23.302;2023-05-02T04:13:00;2.80;;;2.60;;
37931;SDS011;23758;42.640;23.302;2023-05-02T04:15:27;2.70;;;2.50;;
37931;SDS011;23758;42.640;23.302;2023-05-02T04:17:53;2.95;;;2.75;;
37931;SDS011;23758;42.640;23.302;2023-05-02T04:20:18;2.90;;;2.70;;
37931;SDS011;23758;42.640;23.302;2023-05-02T04:22:44;2.63;;;2.42;;
37931;SDS011;23758;42.640;23.302;2023-05-02T04:25:11;2.53;;;2.40;;
37931;SDS011;23758;42.640;23.302;2023-05-02T04:27:37;9.70;;;3.30;;
37931;SDS011;23758;42.640;23.302;2023-05-02T04:30:03;2.30;;;2.20;;
37931;SDS011;23758;42.640;23.302;2023-05-02T04:32:28;2.50;;;2.30;;
37931;SDS011;23758;42.640;23.302;2023-05-02T04:34:54;2.20;;;2.10;;
37931;SDS011;23758;42.640;23.302;2023-05-02T04:37:19;2.40;;;2.30;;
37931;SDS011;23758;42.640;23.302;2023-05-02T04:39:45;2.83;;;2.63;;
37931;SDS011;23758;42.640;23.302;2023-05-02T04:42:10;2.38;;;2.28;;
37931;SDS011;23758;42.640;23.302;2023-05-02T04:44:36;2.60;;;2.45;;
37931;SDS011;23758;42.640;23.302;2023-05-02T04:47:01;2.30;;;2.20;;
37931;SDS011;23758;42.640;23.302;2023-05-02T04:49:28;2.10;;;2.00;;
37931;SDS011;23758;42.640;23.302;2023-05-02T04:51:54;2.00;;;1.90;;
37931;SDS011;23758;42.640;23.302;2023-05-02T04:54:20;1.90;;;1.80;;
37931;SDS011;23758;42.640;23.302;2023-05-02T04:56:45;2.00;;;1.90;;
37931;SDS011;23758;42.640;23.302;2023-05-02T04:59:11;1.73;;;1.63;;
37931;SDS011;23758;42.640;23.302;2023-05-02T05:01:37;2.30;;;2.15;;
37931;SDS011;23758;42.640;23.302;2023-05-02T05:04:02;1.90;;;1.80;;
37931;SDS011;23758;42.640;23.302;2023-05-02T05:06:28;2.03;;;1.92;;
37931;SDS011;23758;42.640;23.302;2023-05-02T05:08:53;1.88;;;1.77;;
37931;SDS011;23758;42.640;23.302;2023-05-02T05:11:18;1.90;;;1.80;;
37931;SDS011;23758;42.640;23.302;2023-05-02T05:13:44;2.15;;;2.03;;
37931;SDS011;23758;42.640;23.302;2023-05-02T05:16:10;1.95;;;1.85;;
37931;SDS011;23758;42.640;23.302;2023-05-02T05:18:36;2.10;;;2.00;;
37931;SDS011;23758;42.640;23.302;2023-05-02T05:21:05;2.33;;;2.20;;
37931;SDS011;23758;42.640;23.302;2023-05-02T05:23:34;2.10;;;2.00;;
37931;SDS011;23758;42.640;23.302;2023-05-02T05:26:09;2.40;;;2.30;;
37931;SDS011;23758;42.640;23.302;2023-05-02T05:28:39;2.35;;;2.25;;
37931;SDS011;23758;42.640;23.302;2023-05-02T05:31:08;2.38;;;2.25;;
37931;SDS011;23758;42.640;23.302;2023-05-02T05:33:35;2.30;;;2.20;;
37931;SDS011;23758;42.640;23.302;2023-05-02T05:36:05;2.97;;;2.78;;
37931;SDS011;23758;42.640;23.302;2023-05-02T05:38:30;2.10;;;2.00;;
37931;SDS011;23758;42.640;23.302;2023-05-02T05:40:56;2.30;;;2.20;;
37931;SDS011;23758;42.640;23.302;2023-05-02T05:43:22;2.45;;;2.25;;
37931;SDS011;23758;42.640;23.302;2023-05-02T05:45:47;2.35;;;2.25;;
37931;SDS011;23758;42.640;23.302;2023-05-02T05:48:18;2.28;;;2.17;;
37931;SDS011;23758;42.640;23.302;2023-05-02T05:50:43;2.30;;;2.20;;
37931;SDS011;23758;42.640;23.302;2023-05-02T05:53:09;2.22;;;2.10;;
37931;SDS011;23758;42.640;23.302;2023-05-02T05:55:34;2.28;;;2.17;;
37931;SDS011;23758;42.640;23.302;2023-05-02T05:58:02;2.30;;;2.17;;
37931;SDS011;23758;42.640;23.302;2023-05-02T06:00:27;2.35;;;2.25;;
37931;SDS011;23758;42.640;23.302;2023-05-02T06:02:53;2.17;;;2.08;;
37931;SDS011;23758;42.640;23.302;2023-05-02T06:05:18;2.40;;;2.30;;
37931;SDS011;23758;42.640;23.302;2023-05-02T06:07:44;2.22;;;2.13;;
37931;SDS011;23758;42.640;23.302;2023-05-02T06:10:09;2.10;;;2.00;;
37931;SDS011;23758;42.640;23.302;2023-05-02T06:12:35;2.38;;;2.28;;
37931;SDS011;23758;42.640;23.302;2023-05-02T06:15:00;2.10;;;2.00;;
37931;SDS011;23758;42.640;23.302;2023-05-02T06:17:25;2.65;;;2.45;;
37931;SDS011;23758;42.640;23.302;2023-05-02T06:19:51;2.53;;;2.33;;
37931;SDS011;23758;42.640;23.302;2023-05-02T06:22:16;2.58;;;2.40;;
37931;SDS011;23758;42.640;23.302;2023-05-02T06:24:42;2.30;;;2.20;;
37931;SDS011;23758;42.640;23.302;2023-05-02T06:27:07;2.30;;;2.20;;
37931;SDS011;23758;42.640;23.302;2023-05-02T06:29:33;2.22;;;2.13;;
37931;SDS011;23758;42.640;23.302;2023-05-02T06:31:58;2.20;;;2.10;;
37931;SDS011;23758;42.640;23.302;2023-05-02T06:34:24;2.30;;;2.20;;
37931;SDS011;23758;42.640;23.302;2023-05-02T06:36:52;3.03;;;2.83;;
37931;SDS011;23758;42.640;23.302;2023-05-02T06:39:20;2.30;;;2.20;;
37931;SDS011;23758;42.640;23.302;2023-05-02T06:41:46;2.40;;;2.30;;
37931;SDS011;23758;42.640;23.302;2023-05-02T06:44:12;2.60;;;2.40;;
37931;SDS011;23758;42.640;23.302;2023-05-02T06:46:38;2.65;;;2.45;;
37931;SDS011;23758;42.640;23.302;2023-05-02T06:49:03;2.40;;;2.30;;
37931;SDS011;23758;42.640;23.302;2023-05-02T06:51:29;2.38;;;2.28;;
37931;SDS011;23758;42.640;23.302;2023-05-02T06:53:55;2.30;;;2.20;;
37931;SDS011;23758;42.640;23.302;2023-05-02T06:56:21;2.40;;;2.30;;
37931;SDS011;23758;42.640;23.302;2023-05-02T06:58:49;2.40;;;2.30;;
37931;SDS011;23758;42.640;23.302;2023-05-02T07:01:15;2.20;;;2.10;;
37931;SDS011;23758;42.640;23.302;2023-05-02T07:03:40;2.45;;;2.35;;
37931;SDS011;23758;42.640;23.302;2023-05-02T07:06:06;2.75;;;2.55;;
37931;SDS011;23758;42.640;23.302;2023-05-02T07:08:31;2.33;;;2.22;;
37931;SDS011;23758;42.640;23.302;2023-05-02T07:10:57;2.30;;;2.20;;
37931;SDS011;23758;42.640;23.302;2023-05-02T07:13:22;2.30;;;2.20;;
37931;SDS011;23758;42.640;23.302;2023-05-02T07:15:48;2.40;;;2.28;;
37931;SDS011;23758;42.640;23.302;2023-05-02T07:18:13;2.70;;;2.50;;
37931;SDS011;23758;42.640;23.302;2023-05-02T07:20:38;2.40;;;2.30;;
37931;SDS011;23758;42.640;23.302;2023-05-02T07:23:06;2.50;;;2.40;;
37931;SDS011;23758;42.640;23.302;2023-05-02T07:25:33;2.42;;;2.33;;
37931;SDS011;23758;42.640;23.302;2023-05-02T07:27:58;2.40;;;2.30;;
37931;SDS011;23758;42.640;23.302;2023-05-02T07:30:24;2.65;;;2.45;;
37931;SDS011;23758;42.640;23.302;2023-05-02T07:32:49;2.50;;;2.40;;
37931;SDS011;23758;42.640;23.302;2023-05-02T07:35:15;2.40;;;2.30;;
37931;SDS011;23758;42.640;23.302;2023-05-02T07:37:41;2.30;;;2.20;;
37931;SDS011;23758;42.640;23.302;2023-05-02T07:40:06;2.35;;;2.25;;
37931;SDS011;23758;42.640;23.302;2023-05-02T07:42:33;2.40;;;2.30;;
37931;SDS011;23758;42.640;23.302;2023-05-02T07:44:59;2.40;;;2.30;;
37931;SDS011;23758;42.640;23.302;2023-05-02T07:47:25;2.55;;;2.40;;
37931;SDS011;23758;42.640;23.302;2023-05-02T07:49:51;2.95;;;2.75;;
37931;SDS011;23758;42.640;23.302;2023-05-02T07:52:17;2.50;;;2.40;;
37931;SDS011;23758;42.640;23.302;2023-05-02T07:54:43;2.35;;;2.20;;
37931;SDS011;23758;42.640;23.302;2023-05-02T07:57:10;3.15;;;2.85;;
37931;SDS011;23758;42.640;23.302;2023-05-02T07:59:36;2.22;;;2.08;;
37931;SDS011;23758;42.640;23.302;2023-05-02T08:02:02;2.22;;;2.13;;
37931;SDS011;23758;42.640;23.302;2023-05-02T08:04:28;2.20;;;2.10;;
37931;SDS011;23758;42.640;23.302;2023-05-02T08:06:53;2.33;;;2.22;;
37931;SDS011;23758;42.640;23.302;2023-05-02T08:09:19;2.10;;;2.00;;
37931;SDS011;23758;42.640;23.302;2023-05-02T08:11:45;2.33;;;2.22;;
37931;SDS011;23758;42.640;23.302;2023-05-02T08:14:11;2.10;;;2.00;;
37931;SDS011;23758;42.640;23.302;2023-05-02T08:16:36;2.20;;;2.10;;
37931;SDS011;23758;42.640;23.302;2023-05-02T08:19:02;2.00;;;1.90;;
37931;SDS011;23758;42.640;23.302;2023-05-02T08:21:27;2.00;;;1.90;;
37931;SDS011;23758;42.640;23.302;2023-05-02T08:23:56;2.30;;;2.20;;
37931;SDS011;23758;42.640;23.302;2023-05-02T08:26:22;2.25;;;2.15;;
37931;SDS011;23758;42.640;23.302;2023-05-02T08:28:48;2.03;;;1.92;;
37931;SDS011;23758;42.640;23.302;2023-05-02T08:31:17;2.47;;;2.28;;
37931;SDS011;23758;42.640;23.302;2023-05-02T08:33:42;2.10;;;2.00;;
37931;SDS011;23758;42.640;23.302;2023-05-02T08:36:11;2.15;;;2.05;;
37931;SDS011;23758;42.640;23.302;2023-05-02T08:38:37;1.90;;;1.80;;
37931;SDS011;23758;42.640;23.302;2023-05-02T08:41:08;1.90;;;1.80;;
37931;SDS011;23758;42.640;23.302;2023-05-02T08:43:35;2.40;;;2.20;;
37931;SDS011;23758;42.640;23.302;2023-05-02T08:46:03;1.80;;;1.70;;
37931;SDS011;23758;42.640;23.302;2023-05-02T08:48:31;1.90;;;1.80;;
37931;SDS011;23758;42.640;23.302;2023-05-02T08:50:57;1.63;;;1.52;;
37931;SDS011;23758;42.640;23.302;2023-05-02T08:53:23;1.77;;;1.67;;
37931;SDS011;23758;42.640;23.302;2023-05-02T08:55:49;1.80;;;1.70;;
37931;SDS011;23758;42.640;23.302;2023-05-02T08:58:15;1.75;;;1.65;;
37931;SDS011;23758;42.640;23.302;2023-05-02T09:00:41;2.03;;;1.92;;
37931;SDS011;23758;42.640;23.302;2023-05-02T09:06:06;1.80;;;1.70;;
37931;SDS011;23758;42.640;23.302;2023-05-02T09:08:36;1.75;;;1.65;;
37931;SDS011;23758;42.640;23.302;2023-05-02T09:11:03;1.90;;;1.80;;
37931;SDS011;23758;42.640;23.302;2023-05-02T09:18:35;2.00;;;1.90;;
37931;SDS011;23758;42.640;23.302;2023-05-02T09:21:20;2.25;;;2.05;;
37931;SDS011;23758;42.640;23.302;2023-05-02T09:23:50;2.03;;;1.92;;
37931;SDS011;23758;42.640;23.302;2023-05-02T09:26:18;2.08;;;1.98;;
37931;SDS011;23758;42.640;23.302;2023-05-02T09:28:51;1.67;;;1.58;;
37931;SDS011;23758;42.640;23.302;2023-05-02T09:31:18;1.70;;;1.60;;
37931;SDS011;23758;42.640;23.302;2023-05-02T09:33:45;1.70;;;1.60;;
37931;SDS011;23758;42.640;23.302;2023-05-02T09:36:12;1.60;;;1.50;;
37931;SDS011;23758;42.640;23.302;2023-05-02T09:38:39;1.88;;;1.77;;
37931;SDS011;23758;42.640;23.302;2023-05-02T09:41:05;1.83;;;1.73;;
37931;SDS011;23758;42.640;23.302;2023-05-02T09:43:31;1.70;;;1.60;;
37931;SDS011;23758;42.640;23.302;2023-05-02T09:48:23;2.13;;;1.92;;
37931;SDS011;23758;42.640;23.302;2023-05-02T09:50:50;1.65;;;1.55;;
37931;SDS011;23758;42.640;23.302;2023-05-02T09:53:15;1.70;;;1.60;;
37931;SDS011;23758;42.640;23.302;2023-05-02T09:55:41;5.85;;;2.15;;
37931;SDS011;23758;42.640;23.302;2023-05-02T09:58:06;2.13;;;2.03;;
37931;SDS011;23758;42.640;23.302;2023-05-02T10:00:47;1.80;;;1.70;;
37931;SDS011;23758;42.640;23.302;2023-05-02T10:03:15;4.82;;;2.00;;
37931;SDS011;23758;42.640;23.302;2023-05-02T10:05:42;2.28;;;2.17;;
37931;SDS011;23758;42.640;23.302;2023-05-02T10:08:08;2.10;;;2.00;;
37931;SDS011;23758;42.640;23.302;2023-05-02T10:10:41;2.05;;;1.95;;
37931;SDS011;23758;42.640;23.302;2023-05-02T10:13:11;2.20;;;2.10;;
37931;SDS011;23758;42.640;23.302;2023-05-02T10:15:41;2.10;;;2.00;;
37931;SDS011;23758;42.640;23.302;2023-05-02T10:18:10;2.60;;;2.10;;
37931;SDS011;23758;42.640;23.302;2023-05-02T10:20:54;2.00;;;1.90;;
37931;SDS011;23758;42.640;23.302;2023-05-02T10:23:24;3.38;;;2.72;;
37931;SDS011;23758;42.640;23.302;2023-05-02T10:25:51;2.13;;;1.98;;
37931;SDS011;23758;42.640;23.302;2023-05-02T10:28:17;2.08;;;1.98;;
37931;SDS011;23758;42.640;23.302;2023-05-02T10:30:42;1.90;;;1.80;;
37931;SDS011;23758;42.640;23.302;2023-05-02T10:33:08;1.65;;;1.55;;
37931;SDS011;23758;42.640;23.302;2023-05-02T10:35:33;1.70;;;1.60;;
37931;SDS011;23758;42.640;23.302;2023-05-02T10:38:00;1.95;;;1.85;;
37931;SDS011;23758;42.640;23.302;2023-05-02T10:40:26;1.95;;;1.85;;
37931;SDS011;23758;42.640;23.302;2023-05-02T10:42:51;1.80;;;1.70;;
37931;SDS011;23758;42.640;23.302;2023-05-02T10:45:30;1.70;;;1.60;;
37931;SDS011;23758;42.640;23.302;2023-05-02T10:50:44;2.38;;;2.20;;
37931;SDS011;23758;42.640;23.302;2023-05-02T10:53:44;2.10;;;2.00;;
37931;SDS011;23758;42.640;23.302;2023-05-02T10:58:34;1.70;;;1.60;;
37931;SDS011;23758;42.640;23.302;2023-05-02T11:03:55;1.85;;;1.75;;
37931;SDS011;23758;42.640;23.302;2023-05-02T11:06:27;2.10;;;2.00;;
37931;SDS011;23758;42.640;23.302;2023-05-02T11:14:19;1.98;;;1.88;;
37931;SDS011;23758;42.640;23.302;2023-05-02T11:24:48;1.80;;;1.70;;
37931;SDS011;23758;42.640;23.302;2023-05-02T11:30:02;1.70;;;1.60;;
37931;SDS011;23758;42.640;23.302;2023-05-02T11:35:16;2.30;;;1.85;;
37931;SDS011;23758;42.640;23.302;2023-05-02T11:37:42;1.92;;;1.83;;
37931;SDS011;23758;42.640;23.302;2023-05-02T11:40:11;1.90;;;1.80;;
37931;SDS011;23758;42.640;23.302;2023-05-02T11:42:40;2.10;;;2.00;;
37931;SDS011;23758;42.640;23.302;2023-05-02T11:45:06;1.90;;;1.80;;
37931;SDS011;23758;42.640;23.302;2023-05-02T11:47:31;1.90;;;1.80;;
37931;SDS011;23758;42.640;23.302;2023-05-02T11:49:57;2.00;;;1.90;;
37931;SDS011;23758;42.640;23.302;2023-05-02T11:52:24;2.40;;;2.30;;
37931;SDS011;23758;42.640;23.302;2023-05-02T11:54:53;1.80;;;1.70;;
37931;SDS011;23758;42.640;23.302;2023-05-02T11:57:22;1.90;;;1.80;;
37931;SDS011;23758;42.640;23.302;2023-05-02T11:59:51;2.10;;;2.00;;
37931;SDS011;23758;42.640;23.302;2023-05-02T12:02:17;2.42;;;2.20;;
37931;SDS011;23758;42.640;23.302;2023-05-02T12:04:43;1.70;;;1.60;;
37931;SDS011;23758;42.640;23.302;2023-05-02T12:07:09;4.35;;;2.30;;
37931;SDS011;23758;42.640;23.302;2023-05-02T12:09:34;2.10;;;2.00;;
37931;SDS011;23758;42.640;23.302;2023-05-02T12:12:00;2.00;;;1.90;;
37931;SDS011;23758;42.640;23.302;2023-05-02T12:14:29;1.90;;;1.80;;
37931;SDS011;23758;42.640;23.302;2023-05-02T12:16:57;1.95;;;1.85;;
37931;SDS011;23758;42.640;23.302;2023-05-02T12:19:23;2.05;;;1.95;;
37931;SDS011;23758;42.640;23.302;2023-05-02T12:21:50;1.90;;;1.80;;
37931;SDS011;23758;42.640;23.302;2023-05-02T12:24:16;1.90;;;1.80;;
37931;SDS011;23758;42.640;23.302;2023-05-02T12:26:41;2.00;;;1.90;;
37931;SDS011;23758;42.640;23.302;2023-05-02T12:29:07;3.13;;;1.90;;
37931;SDS011;23758;42.640;23.302;2023-05-02T12:31:33;2.00;;;1.90;;
37931;SDS011;23758;42.640;23.302;2023-05-02T12:33:58;2.03;;;1.92;;
37931;SDS011;23758;42.640;23.302;2023-05-02T12:36:25;2.00;;;1.90;;
37931;SDS011;23758;42.640;23.302;2023-05-02T12:39:01;2.30;;;2.20;;
37931;SDS011;23758;42.640;23.302;2023-05-02T12:41:32;2.10;;;2.00;;
37931;SDS011;23758;42.640;23.302;2023-05-02T12:43:58;2.53;;;2.10;;
37931;SDS011;23758;42.640;23.302;2023-05-02T12:46:25;2.10;;;2.00;;
37931;SDS011;23758;42.640;23.302;2023-05-02T12:49:07;2.10;;;2.00;;
37931;SDS011;23758;42.640;23.302;2023-05-02T12:51:33;1.90;;;1.80;;
37931;SDS011;23758;42.640;23.302;2023-05-02T12:54:00;1.80;;;1.70;;
37931;SDS011;23758;42.640;23.302;2023-05-02T12:56:26;2.58;;;2.38;;
37931;SDS011;23758;42.640;23.302;2023-05-02T12:58:56;1.90;;;1.80;;
37931;SDS011;23758;42.640;23.302;2023-05-02T13:01:25;2.00;;;1.90;;
37931;SDS011;23758;42.640;23.302;2023-05-02T13:03:50;1.95;;;1.85;;
37931;SDS011;23758;42.640;23.302;2023-05-02T13:06:16;2.00;;;1.90;;
37931;SDS011;23758;42.640;23.302;2023-05-02T13:08:42;1.90;;;1.80;;
37931;SDS011;23758;42.640;23.302;2023-05-02T13:11:08;2.05;;;1.95;;
37931;SDS011;23758;42.640;23.302;2023-05-02T13:13:33;1.90;;;1.80;;
37931;SDS011;23758;42.640;23.302;2023-05-02T13:15:59;2.20;;;2.00;;
37931;SDS011;23758;42.640;23.302;2023-05-02T13:18:25;1.90;;;1.80;;
37931;SDS011;23758;42.640;23.302;2023-05-02T13:20:52;2.42;;;2.13;;
37931;SDS011;23758;42.640;23.302;2023-05-02T13:23:18;1.80;;;1.70;;
37931;SDS011;23758;42.640;23.302;2023-05-02T13:25:43;1.85;;;1.75;;
37931;SDS011;23758;42.640;23.302;2023-05-02T13:28:08;2.00;;;1.90;;
37931;SDS011;23758;42.640;23.302;2023-05-02T13:30:34;1.95;;;1.85;;
37931;SDS011;23758;42.640;23.302;2023-05-02T13:33:00;1.83;;;1.73;;
37931;SDS011;23758;42.640;23.302;2023-05-02T13:35:25;1.70;;;1.60;;
37931;SDS011;23758;42.640;23.302;2023-05-02T13:37:51;2.10;;;2.00;;
37931;SDS011;23758;42.640;23.302;2023-05-02T13:40:16;1.90;;;1.80;;
37931;SDS011;23758;42.640;23.302;2023-05-02T13:42:42;2.00;;;1.90;;
37931;SDS011;23758;42.640;23.302;2023-05-02T13:45:07;2.35;;;2.15;;
37931;SDS011;23758;42.640;23.302;2023-05-02T13:47:33;4.03;;;2.20;;
37931;SDS011;23758;42.640;23.302;2023-05-02T13:49:59;1.90;;;1.80;;
37931;SDS011;23758;42.640;23.302;2023-05-02T13:52:24;1.90;;;1.80;;
37931;SDS011;23758;42.640;23.302;2023-05-02T13:54:50;1.85;;;1.75;;
37931;SDS011;23758;42.640;23.302;2023-05-02T13:57:15;1.90;;;1.80;;
37931;SDS011;23758;42.640;23.302;2023-05-02T13:59:41;13.65;;;2.20;;
37931;SDS011;23758;42.640;23.302;2023-05-02T14:02:06;2.00;;;1.90;;
37931;SDS011;23758;42.640;23.302;2023-05-02T14:04:31;1.90;;;1.80;;
37931;SDS011;23758;42.640;23.302;2023-05-02T14:06:57;1.95;;;1.85;;
37931;SDS011;23758;42.640;23.302;2023-05-02T14:09:22;1.90;;;1.80;;
37931;SDS011;23758;42.640;23.302;2023-05-02T14:11:48;1.95;;;1.85;;
37931;SDS011;23758;42.640;23.302;2023-05-02T14:14:13;2.00;;;1.90;;
37931;SDS011;23758;42.640;23.302;2023-05-02T14:16:39;2.50;;;2.30;;
37931;SDS011;23758;42.640;23.302;2023-05-02T14:19:05;1.90;;;1.77;;
37931;SDS011;23758;42.640;23.302;2023-05-02T14:21:30;1.90;;;1.80;;
37931;SDS011;23758;42.640;23.302;2023-05-02T14:23:56;1.92;;;1.83;;
37931;SDS011;23758;42.640;23.302;2023-05-02T14:26:21;2.00;;;1.90;;
37931;SDS011;23758;42.640;23.302;2023-05-02T14:28:47;2.05;;;1.90;;
37931;SDS011;23758;42.640;23.302;2023-05-02T14:31:12;4.05;;;2.45;;
37931;SDS011;23758;42.640;23.302;2023-05-02T14:33:38;2.33;;;2.13;;
37931;SDS011;23758;42.640;23.302;2023-05-02T14:36:04;2.00;;;1.90;;
37931;SDS011;23758;42.640;23.302;2023-05-02T14:38:29;1.90;;;1.80;;
37931;SDS011;23758;42.640;23.302;2023-05-02T14:40:55;2.55;;;2.35;;
37931;SDS011;23758;42.640;23.302;2023-05-02T14:43:20;1.98;;;1.88;;
37931;SDS011;23758;42.640;23.302;2023-05-02T14:45:46;2.40;;;2.20;;
37931;SDS011;23758;42.640;23.302;2023-05-02T14:48:12;2.00;;;1.90;;
37931;SDS011;23758;42.640;23.302;2023-05-02T14:50:41;2.03;;;1.92;;
37931;SDS011;23758;42.640;23.302;2023-05-02T14:53:07;2.00;;;1.90;;
37931;SDS011;23758;42.640;23.302;2023-05-02T14:55:36;2.10;;;2.00;;
37931;SDS011;23758;42.640;23.302;2023-05-02T14:58:05;2.03;;;1.92;;
37931;SDS011;23758;42.640;23.302;2023-05-02T15:00:36;2.08;;;1.98;;
37931;SDS011;23758;42.640;23.302;2023-05-02T15:03:03;2.00;;;1.90;;
37931;SDS011;23758;42.640;23.302;2023-05-02T15:05:29;2.00;;;1.90;;
37931;SDS011;23758;42.640;23.302;2023-05-02T15:07:54;2.13;;;2.00;;
37931;SDS011;23758;42.640;23.302;2023-05-02T15:10:20;2.10;;;2.00;;
37931;SDS011;23758;42.640;23.302;2023-05-02T15:12:45;1.88;;;1.77;;
37931;SDS011;23758;42.640;23.302;2023-05-02T15:15:14;2.30;;;2.20;;
37931;SDS011;23758;42.640;23.302;2023-05-02T15:17:43;1.92;;;1.83;;
37931;SDS011;23758;42.640;23.302;2023-05-02T15:20:09;2.95;;;2.75;;
37931;SDS011;23758;42.640;23.302;2023-05-02T15:22:35;2.10;;;2.00;;
37931;SDS011;23758;42.640;23.302;2023-05-02T15:25:01;2.55;;;2.35;;
37931;SDS011;23758;42.640;23.302;2023-05-02T15:27:26;1.90;;;1.80;;
37931;SDS011;23758;42.640;23.302;2023-05-02T15:29:51;2.20;;;2.10;;
37931;SDS011;23758;42.640;23.302;2023-05-02T15:32:17;2.10;;;2.00;;
37931;SDS011;23758;42.640;23.302;2023-05-02T15:34:43;2.00;;;1.90;;